createdAt,value
2016-05-21T00:00:23.545Z,0
2016-05-21T00:01:23.359Z,0
2016-05-21T00:02:23.347Z,0
2016-05-21T00:03:23.256Z,0
2016-05-21T00:04:23.024Z,0
2016-05-21T00:05:23.355Z,0
2016-05-21T00:06:23.451Z,0
2016-05-21T00:07:23.048Z,0
2016-05-21T00:08:23.019Z,0
2016-05-21T00:09:23.085Z,0
2016-05-21T00:10:23.118Z,0
2016-05-21T00:11:22.945Z,0
2016-05-21T00:12:23.277Z,0
2016-05-21T00:13:23.014Z,0
2016-05-21T00:14:23.188Z,0
2016-05-21T00:15:23.004Z,0
2016-05-21T00:16:23.452Z,0
2016-05-21T00:17:23.070Z,0
2016-05-21T00:18:23.219Z,0
2016-05-21T00:19:23.008Z,0
2016-05-21T00:20:23.220Z,0
2016-05-21T00:21:22.960Z,0
2016-05-21T00:22:22.966Z,0
2016-05-21T00:23:22.970Z,0
2016-05-21T00:24:22.898Z,0
2016-05-21T00:25:22.855Z,0
2016-05-21T00:26:22.953Z,0
2016-05-21T00:27:22.863Z,0
2016-05-21T00:28:22.788Z,0
2016-05-21T00:29:22.775Z,0
2016-05-21T00:30:22.856Z,0
2016-05-21T00:31:22.688Z,0
2016-05-21T00:32:22.988Z,0
2016-05-21T00:33:22.678Z,0
2016-05-21T00:34:23.368Z,0
2016-05-21T00:35:23.012Z,0
2016-05-21T00:36:22.701Z,0
2016-05-21T00:37:23.267Z,0
2016-05-21T00:38:23.442Z,0
2016-05-21T00:39:22.600Z,0
2016-05-21T00:40:22.494Z,0
2016-05-21T00:41:22.403Z,0
2016-05-21T00:42:25.514Z,0
2016-05-21T00:43:22.736Z,0
2016-05-21T00:44:23.394Z,0
2016-05-21T00:45:22.430Z,0
2016-05-21T00:46:23.636Z,0
2016-05-21T00:47:22.341Z,0
2016-05-21T00:48:22.531Z,0
2016-05-21T00:49:22.205Z,0
2016-05-21T00:50:23.271Z,0
2016-05-21T00:51:22.289Z,0
2016-05-21T00:52:22.260Z,0
2016-05-21T00:53:22.263Z,0
2016-05-21T00:54:22.765Z,0
2016-05-21T00:55:22.206Z,0
2016-05-21T00:56:22.302Z,0
2016-05-21T00:57:22.023Z,0
2016-05-21T00:58:22.167Z,0
2016-05-21T00:59:21.998Z,0
2016-05-21T01:00:22.360Z,0
2016-05-21T01:01:22.098Z,0
2016-05-21T01:02:22.303Z,0
2016-05-21T01:03:22.024Z,0
2016-05-21T01:04:22.059Z,0
2016-05-21T01:05:22.014Z,0
2016-05-21T01:06:23.157Z,0
2016-05-21T01:07:21.973Z,0
2016-05-21T01:08:22.225Z,0
2016-05-21T01:09:21.900Z,0
2016-05-21T01:10:21.730Z,0
2016-05-21T01:11:22.186Z,0
2016-05-21T01:12:21.955Z,0
2016-05-21T01:13:21.816Z,0
2016-05-21T01:14:22.461Z,0
2016-05-21T01:15:21.791Z,0
2016-05-21T01:16:21.716Z,0
2016-05-21T01:17:21.687Z,0
2016-05-21T01:18:21.939Z,0
2016-05-21T01:19:21.724Z,0
2016-05-21T01:20:21.867Z,0
2016-05-21T01:21:22.041Z,0
2016-05-21T01:22:21.513Z,0
2016-05-21T01:23:21.641Z,0
2016-05-21T01:24:21.752Z,0
2016-05-21T01:25:21.537Z,0
2016-05-21T01:26:21.976Z,0
2016-05-21T01:27:21.307Z,0
2016-05-21T01:28:21.466Z,0
2016-05-21T01:29:21.907Z,0
2016-05-21T01:30:21.941Z,0
2016-05-21T01:31:21.303Z,0
2016-05-21T01:32:23.118Z,0
2016-05-21T01:33:21.527Z,0
2016-05-21T01:34:21.373Z,0
2016-05-21T01:35:21.673Z,0
2016-05-21T01:36:21.645Z,0
2016-05-21T01:37:21.350Z,0
2016-05-21T01:38:22.493Z,0
2016-05-21T01:39:21.512Z,0
2016-05-21T01:40:21.202Z,0
2016-05-21T01:41:21.955Z,0
2016-05-21T01:42:21.473Z,0
2016-05-21T01:43:21.195Z,0
2016-05-21T01:44:21.589Z,0
2016-05-21T01:45:21.450Z,0
2016-05-21T01:46:21.250Z,0
2016-05-21T01:47:21.861Z,0
2016-05-21T01:48:22.536Z,0
2016-05-21T01:49:20.930Z,0
2016-05-21T01:50:21.322Z,0
2016-05-21T01:51:21.685Z,0
2016-05-21T01:52:20.937Z,0
2016-05-21T01:53:20.737Z,0
2016-05-21T01:54:23.646Z,0
2016-05-21T01:55:21.711Z,0
2016-05-21T01:56:22.871Z,0
2016-05-21T01:57:20.732Z,0
2016-05-21T01:58:21.532Z,0
2016-05-21T01:59:21.347Z,0
2016-05-21T02:00:22.177Z,0
2016-05-21T02:01:20.805Z,0
2016-05-21T02:02:21.011Z,0
2016-05-21T02:03:21.029Z,0
2016-05-21T02:04:20.829Z,0
2016-05-21T02:05:20.987Z,0
2016-05-21T02:06:20.943Z,0
2016-05-21T02:07:21.165Z,0
2016-05-21T02:08:21.417Z,0
2016-05-21T02:09:21.326Z,0
2016-05-21T02:10:20.564Z,0
2016-05-21T02:11:21.332Z,0
2016-05-21T02:12:21.242Z,0
2016-05-21T02:13:20.900Z,0
2016-05-21T02:14:22.044Z,0
2016-05-21T02:15:20.750Z,0
2016-05-21T02:16:21.658Z,0
2016-05-21T02:17:20.427Z,0
2016-05-21T02:18:20.725Z,0
2016-05-21T02:19:20.791Z,0
2016-05-21T02:20:20.685Z,0
2016-05-21T02:21:20.734Z,0
2016-05-21T02:22:20.361Z,0
2016-05-21T02:23:21.927Z,0
2016-05-21T02:24:21.649Z,0
2016-05-21T02:25:20.652Z,0
2016-05-21T02:26:20.357Z,0
2016-05-21T02:27:20.156Z,0
2016-05-21T02:28:20.316Z,0
2016-05-21T02:29:20.177Z,0
2016-05-21T02:30:20.415Z,0
2016-05-21T02:31:22.215Z,0
2016-05-21T02:32:20.826Z,0
2016-05-21T02:33:20.048Z,0
2016-05-21T02:34:19.972Z,0
2016-05-21T02:35:20.288Z,0
2016-05-21T02:36:20.508Z,0
2016-05-21T02:37:20.949Z,0
2016-05-21T02:38:20.218Z,0
2016-05-21T02:39:19.782Z,0
2016-05-21T02:40:20.723Z,0
2016-05-21T02:41:20.209Z,0
2016-05-21T02:42:20.259Z,0
2016-05-21T02:43:19.856Z,0
2016-05-21T02:44:21.483Z,0
2016-05-21T02:45:20.345Z,0
2016-05-21T02:46:20.097Z,0
2016-05-21T02:47:20.163Z,0
2016-05-21T02:48:20.025Z,0
2016-05-21T02:49:19.763Z,0
2016-05-21T02:50:21.031Z,0
2016-05-21T02:51:20.143Z,0
2016-05-21T02:52:19.692Z,0
2016-05-21T02:53:19.695Z,0
2016-05-21T02:54:19.854Z,0
2016-05-21T02:55:22.060Z,0
2016-05-21T02:56:20.328Z,0
2016-05-21T02:57:19.971Z,0
2016-05-21T02:58:20.255Z,0
2016-05-21T02:59:19.899Z,0
2016-05-21T03:00:20.527Z,0
2016-05-21T03:01:19.716Z,0
2016-05-21T03:02:20.000Z,0
2016-05-21T03:03:20.738Z,0
2016-05-21T03:04:19.865Z,0
2016-05-21T03:05:19.837Z,0
2016-05-21T03:06:19.558Z,4
2016-05-21T03:07:19.295Z,0
2016-05-21T03:08:19.517Z,0
2016-05-21T03:09:19.379Z,0
2016-05-21T03:10:19.397Z,4
2016-05-21T03:11:19.072Z,0
2016-05-21T03:12:19.981Z,0
2016-05-21T03:13:19.139Z,0
2016-05-21T03:14:19.361Z,4
2016-05-21T03:15:19.098Z,4
2016-05-21T03:16:20.397Z,0
2016-05-21T03:17:19.072Z,4
2016-05-21T03:18:19.153Z,0
2016-05-21T03:19:18.546Z,4
2016-05-21T03:20:19.300Z,4
2016-05-21T03:21:19.911Z,4
2016-05-21T03:22:20.023Z,4
2016-05-21T03:23:18.776Z,4
2016-05-21T03:24:19.169Z,8
2016-05-21T03:25:19.031Z,4
2016-05-21T03:26:21.393Z,4
2016-05-21T03:27:19.631Z,8
2016-05-21T03:28:19.649Z,4
2016-05-21T03:29:18.885Z,8
2016-05-21T03:30:19.326Z,8
2016-05-21T03:31:18.719Z,12
2016-05-21T03:32:19.081Z,12
2016-05-21T03:33:19.021Z,12
2016-05-21T03:34:18.868Z,12
2016-05-21T03:35:19.621Z,16
2016-05-21T03:36:19.607Z,16
2016-05-21T03:37:18.829Z,20
2016-05-21T03:38:20.098Z,20
2016-05-21T03:39:18.975Z,20
2016-05-21T03:40:18.540Z,24
2016-05-21T03:41:19.153Z,24
2016-05-21T03:42:18.576Z,24
2016-05-21T03:43:18.501Z,24
2016-05-21T03:44:18.754Z,24
2016-05-21T03:45:18.303Z,24
2016-05-21T03:46:18.478Z,24
2016-05-21T03:47:18.450Z,28
2016-05-21T03:48:18.484Z,28
2016-05-21T03:49:18.361Z,32
2016-05-21T03:50:18.833Z,28
2016-05-21T03:51:18.820Z,32
2016-05-21T03:52:18.322Z,32
2016-05-21T03:53:18.466Z,32
2016-05-21T03:54:18.484Z,36
2016-05-21T03:55:18.096Z,40
2016-05-21T03:56:18.864Z,40
2016-05-21T03:57:18.211Z,44
2016-05-21T03:58:18.183Z,48
2016-05-21T03:59:18.107Z,52
2016-05-21T04:00:18.391Z,56
2016-05-21T04:01:19.284Z,60
2016-05-21T04:02:18.490Z,64
2016-05-21T04:03:18.102Z,68
2016-05-21T04:04:17.996Z,72
2016-05-21T04:05:18.138Z,72
2016-05-21T04:06:18.360Z,72
2016-05-21T04:07:17.863Z,76
2016-05-21T04:08:18.318Z,80
2016-05-21T04:09:18.024Z,80
2016-05-21T04:10:21.074Z,88
2016-05-21T04:11:18.701Z,88
2016-05-21T04:12:17.907Z,88
2016-05-21T04:13:18.426Z,88
2016-05-21T04:14:19.288Z,88
2016-05-21T04:15:17.682Z,88
2016-05-21T04:16:18.653Z,92
2016-05-21T04:17:17.828Z,92
2016-05-21T04:18:17.877Z,92
2016-05-21T04:19:17.770Z,96
2016-05-21T04:20:18.664Z,96
2016-05-21T04:21:17.792Z,104
2016-05-21T04:22:17.450Z,104
2016-05-21T04:23:17.531Z,108
2016-05-21T04:24:17.596Z,112
2016-05-21T04:25:17.553Z,120
2016-05-21T04:26:18.069Z,120
2016-05-21T04:27:17.526Z,124
2016-05-21T04:28:17.529Z,132
2016-05-21T04:29:17.266Z,136
2016-05-21T04:30:17.753Z,132
2016-05-21T04:31:17.537Z,136
2016-05-21T04:32:17.680Z,136
2016-05-21T04:33:17.526Z,140
2016-05-21T04:34:17.326Z,140
2016-05-21T04:35:17.157Z,140
2016-05-21T04:36:17.456Z,144
2016-05-21T04:37:17.444Z,148
2016-05-21T04:38:17.524Z,156
2016-05-21T04:39:17.168Z,168
2016-05-21T04:40:16.983Z,188
2016-05-21T04:41:17.204Z,204
2016-05-21T04:42:17.535Z,216
2016-05-21T04:43:17.162Z,220
2016-05-21T04:44:17.181Z,232
2016-05-21T04:45:17.059Z,232
2016-05-21T04:46:17.624Z,244
2016-05-21T04:47:17.048Z,252
2016-05-21T04:48:17.473Z,260
2016-05-21T04:49:17.289Z,252
2016-05-21T04:50:17.214Z,236
2016-05-21T04:51:17.278Z,232
2016-05-21T04:52:17.012Z,228
2016-05-21T04:53:16.922Z,232
2016-05-21T04:54:17.189Z,240
2016-05-21T04:55:16.989Z,268
2016-05-21T04:56:17.211Z,264
2016-05-21T04:57:16.855Z,260
2016-05-21T04:58:16.888Z,256
2016-05-21T04:59:16.827Z,252
2016-05-21T05:00:17.066Z,256
2016-05-21T05:01:16.865Z,256
2016-05-21T05:02:16.618Z,260
2016-05-21T05:03:16.838Z,260
2016-05-21T05:04:16.779Z,272
2016-05-21T05:05:16.516Z,288
2016-05-21T05:06:16.925Z,296
2016-05-21T05:07:16.662Z,296
2016-05-21T05:08:16.524Z,272
2016-05-21T05:09:16.542Z,276
2016-05-21T05:10:16.561Z,300
2016-05-21T05:11:16.282Z,328
2016-05-21T05:12:16.785Z,336
2016-05-21T05:13:16.554Z,352
2016-05-21T05:14:16.728Z,368
2016-05-21T05:15:16.590Z,404
2016-05-21T05:16:16.468Z,428
2016-05-21T05:17:16.377Z,448
2016-05-21T05:18:16.567Z,440
2016-05-21T05:19:16.429Z,428
2016-05-21T05:20:17.134Z,444
2016-05-21T05:21:16.559Z,456
2016-05-21T05:22:16.672Z,448
2016-05-21T05:23:16.361Z,452
2016-05-21T05:24:16.583Z,452
2016-05-21T05:25:16.414Z,440
2016-05-21T05:26:16.338Z,440
2016-05-21T05:27:16.263Z,452
2016-05-21T05:28:16.188Z,428
2016-05-21T05:29:16.174Z,424
2016-05-21T05:30:16.397Z,404
2016-05-21T05:31:16.086Z,412
2016-05-21T05:32:16.354Z,412
2016-05-21T05:33:16.201Z,412
2016-05-21T05:34:16.125Z,416
2016-05-21T05:35:16.238Z,420
2016-05-21T05:36:16.302Z,408
2016-05-21T05:37:16.259Z,404
2016-05-21T05:38:16.323Z,384
2016-05-21T05:39:16.029Z,368
2016-05-21T05:40:15.954Z,356
2016-05-21T05:41:16.504Z,344
2016-05-21T05:42:15.975Z,328
2016-05-21T05:43:15.946Z,332
2016-05-21T05:44:16.106Z,340
2016-05-21T05:45:15.827Z,352
2016-05-21T05:46:15.986Z,368
2016-05-21T05:47:15.879Z,392
2016-05-21T05:48:16.006Z,412
2016-05-21T05:49:15.759Z,428
2016-05-21T05:50:15.950Z,460
2016-05-21T05:51:15.828Z,436
2016-05-21T05:52:15.752Z,436
2016-05-21T05:53:15.801Z,420
2016-05-21T05:54:16.148Z,416
2016-05-21T05:55:15.572Z,412
2016-05-21T05:56:15.497Z,412
2016-05-21T05:57:15.641Z,396
2016-05-21T05:58:15.597Z,408
2016-05-21T05:59:15.536Z,416
2016-05-21T06:00:15.883Z,420
2016-05-21T06:01:15.479Z,432
2016-05-21T06:02:15.575Z,440
2016-05-21T06:03:15.610Z,448
2016-05-21T06:04:15.269Z,464
2016-05-21T06:05:15.147Z,484
2016-05-21T06:06:16.383Z,512
2016-05-21T06:07:15.402Z,620
2016-05-21T06:08:15.513Z,616
2016-05-21T06:09:15.126Z,600
2016-05-21T06:10:15.379Z,664
2016-05-21T06:11:15.116Z,664
2016-05-21T06:12:15.556Z,660
2016-05-21T06:13:15.637Z,644
2016-05-21T06:14:15.374Z,624
2016-05-21T06:15:15.204Z,600
2016-05-21T06:16:15.207Z,576
2016-05-21T06:17:15.476Z,576
2016-05-21T06:18:15.353Z,500
2016-05-21T06:19:15.153Z,484
2016-05-21T06:20:15.874Z,568
2016-05-21T06:21:15.048Z,508
2016-05-21T06:22:15.286Z,532
2016-05-21T06:23:15.273Z,564
2016-05-21T06:24:15.057Z,620
2016-05-21T06:25:15.325Z,640
2016-05-21T06:26:16.797Z,620
2016-05-21T06:27:14.909Z,688
2016-05-21T06:28:15.005Z,688
2016-05-21T06:29:14.867Z,684
2016-05-21T06:30:15.151Z,680
2016-05-21T06:31:14.935Z,656
2016-05-21T06:32:15.313Z,644
2016-05-21T06:33:14.721Z,624
2016-05-21T06:34:14.990Z,632
2016-05-21T06:35:14.758Z,680
2016-05-21T06:36:15.152Z,708
2016-05-21T06:37:14.733Z,740
2016-05-21T06:38:14.985Z,736
2016-05-21T06:39:14.644Z,708
2016-05-21T06:40:14.710Z,680
2016-05-21T06:41:15.619Z,700
2016-05-21T06:42:14.870Z,652
2016-05-21T06:43:14.468Z,664
2016-05-21T06:44:14.829Z,672
2016-05-21T06:45:14.426Z,644
2016-05-21T06:46:14.959Z,648
2016-05-21T06:47:14.384Z,680
2016-05-21T06:48:14.574Z,728
2016-05-21T06:49:14.452Z,680
2016-05-21T06:50:14.487Z,684
2016-05-21T06:51:14.411Z,700
2016-05-21T06:52:14.335Z,752
2016-05-21T06:53:14.369Z,676
2016-05-21T06:54:14.606Z,704
2016-05-21T06:55:14.328Z,720
2016-05-21T06:56:14.675Z,764
2016-05-21T06:57:13.989Z,756
2016-05-21T06:58:14.351Z,788
2016-05-21T06:59:14.464Z,812
2016-05-21T07:00:14.560Z,872
2016-05-21T07:01:14.219Z,820
2016-05-21T07:02:14.425Z,880
2016-05-21T07:03:14.208Z,920
2016-05-21T07:04:14.086Z,992
2016-05-21T07:05:14.308Z,992
2016-05-21T07:06:15.139Z,972
2016-05-21T07:07:14.782Z,924
2016-05-21T07:08:14.238Z,884
2016-05-21T07:09:13.991Z,872
2016-05-21T07:10:15.290Z,844
2016-05-21T07:11:13.901Z,836
2016-05-21T07:12:14.546Z,776
2016-05-21T07:13:14.407Z,748
2016-05-21T07:14:14.769Z,716
2016-05-21T07:15:13.913Z,676
2016-05-21T07:16:13.931Z,684
2016-05-21T07:17:13.809Z,636
2016-05-21T07:18:13.702Z,616
2016-05-21T07:19:13.877Z,624
2016-05-21T07:20:14.067Z,652
2016-05-21T07:21:14.242Z,644
2016-05-21T07:22:13.885Z,600
2016-05-21T07:23:13.840Z,584
2016-05-21T07:24:13.984Z,556
2016-05-21T07:25:13.908Z,592
2016-05-21T07:26:13.568Z,572
2016-05-21T07:27:13.398Z,584
2016-05-21T07:28:13.681Z,608
2016-05-21T07:29:13.420Z,624
2016-05-21T07:30:13.719Z,656
2016-05-21T07:31:13.925Z,616
2016-05-21T07:32:14.365Z,680
2016-05-21T07:33:13.758Z,744
2016-05-21T07:34:13.605Z,760
2016-05-21T07:35:13.607Z,816
2016-05-21T07:36:13.688Z,832
2016-05-21T07:37:13.675Z,908
2016-05-21T07:38:13.880Z,896
2016-05-21T07:39:14.868Z,968
2016-05-21T07:40:13.543Z,956
2016-05-21T07:41:14.014Z,1024
2016-05-21T07:42:14.079Z,1104
2016-05-21T07:43:13.269Z,1220
2016-05-21T07:44:13.679Z,1388
2016-05-21T07:45:13.931Z,1340
2016-05-21T07:46:13.355Z,1200
2016-05-21T07:47:13.218Z,1244
2016-05-21T07:48:13.908Z,1112
2016-05-21T07:49:13.863Z,1140
2016-05-21T07:50:13.288Z,1192
2016-05-21T07:51:14.604Z,1228
2016-05-21T07:52:13.481Z,1228
2016-05-21T07:53:13.123Z,1260
2016-05-21T07:54:13.346Z,1220
2016-05-21T07:55:13.051Z,1244
2016-05-21T07:56:13.586Z,1236
2016-05-21T07:57:12.932Z,1320
2016-05-21T07:58:12.981Z,1452
2016-05-21T07:59:12.812Z,1400
2016-05-21T08:00:13.565Z,1348
2016-05-21T08:01:12.975Z,1256
2016-05-21T08:02:13.555Z,1092
2016-05-21T08:03:12.870Z,1016
2016-05-21T08:04:12.700Z,948
2016-05-21T08:05:12.875Z,852
2016-05-21T08:06:13.284Z,780
2016-05-21T08:07:12.803Z,736
2016-05-21T08:08:13.727Z,736
2016-05-21T08:09:13.199Z,788
2016-05-21T08:10:12.858Z,744
2016-05-21T08:11:13.251Z,736
2016-05-21T08:12:12.879Z,824
2016-05-21T08:13:13.257Z,900
2016-05-21T08:14:12.774Z,972
2016-05-21T08:15:12.684Z,1040
2016-05-21T08:16:12.639Z,1000
2016-05-21T08:17:12.408Z,932
2016-05-21T08:18:13.004Z,828
2016-05-21T08:19:12.679Z,780
2016-05-21T08:20:12.838Z,756
2016-05-21T08:21:12.559Z,764
2016-05-21T08:22:12.499Z,844
2016-05-21T08:23:12.721Z,852
2016-05-21T08:24:13.770Z,860
2016-05-21T08:25:12.304Z,876
2016-05-21T08:26:13.448Z,940
2016-05-21T08:27:12.544Z,1004
2016-05-21T08:28:12.531Z,1020
2016-05-21T08:29:12.346Z,1008
2016-05-21T08:30:12.334Z,984
2016-05-21T08:31:12.867Z,976
2016-05-21T08:32:12.651Z,968
2016-05-21T08:33:12.138Z,984
2016-05-21T08:34:12.375Z,1068
2016-05-21T08:35:12.269Z,992
2016-05-21T08:36:12.569Z,984
2016-05-21T08:37:12.368Z,988
2016-05-21T08:38:12.292Z,996
2016-05-21T08:39:12.202Z,992
2016-05-21T08:40:12.297Z,988
2016-05-21T08:41:12.050Z,988
2016-05-21T08:42:12.178Z,1008
2016-05-21T08:43:12.212Z,992
2016-05-21T08:44:12.386Z,1056
2016-05-21T08:45:12.061Z,1096
2016-05-21T08:46:12.141Z,1068
2016-05-21T08:47:12.488Z,1128
2016-05-21T08:48:12.054Z,1132
2016-05-21T08:49:12.525Z,1084
2016-05-21T08:50:12.074Z,1132
2016-05-21T08:51:11.984Z,1188
2016-05-21T08:52:11.892Z,1260
2016-05-21T08:53:12.098Z,1288
2016-05-21T08:54:11.601Z,1424
2016-05-21T08:55:11.901Z,1288
2016-05-21T08:56:12.153Z,1248
2016-05-21T08:57:12.484Z,1204
2016-05-21T08:58:11.862Z,1136
2016-05-21T08:59:11.896Z,1228
2016-05-21T09:00:11.633Z,1280
2016-05-21T09:01:11.745Z,1308
2016-05-21T09:02:12.263Z,1376
2016-05-21T09:03:11.704Z,1268
2016-05-21T09:04:11.769Z,1256
2016-05-21T09:05:11.536Z,1264
2016-05-21T09:06:11.775Z,1276
2016-05-21T09:07:11.636Z,1348
2016-05-21T09:08:11.655Z,1288
2016-05-21T09:09:12.329Z,1236
2016-05-21T09:10:11.692Z,1264
2016-05-21T09:11:11.616Z,1300
2016-05-21T09:12:11.431Z,1180
2016-05-21T09:13:11.543Z,1312
2016-05-21T09:14:11.577Z,1248
2016-05-21T09:15:11.470Z,1192
2016-05-21T09:16:11.847Z,1016
2016-05-21T09:17:11.757Z,1080
2016-05-21T09:18:11.500Z,1060
2016-05-21T09:19:11.478Z,1024
2016-05-21T09:20:12.282Z,1032
2016-05-21T09:21:11.446Z,1012
2016-05-21T09:22:11.377Z,1012
2016-05-21T09:23:11.542Z,1016
2016-05-21T09:24:11.662Z,1032
2016-05-21T09:25:11.455Z,1040
2016-05-21T09:26:11.683Z,1048
2016-05-21T09:27:11.334Z,1048
2016-05-21T09:28:11.401Z,1032
2016-05-21T09:29:11.344Z,1032
2016-05-21T09:30:11.631Z,1032
2016-05-21T09:31:11.230Z,1024
2016-05-21T09:32:11.564Z,992
2016-05-21T09:33:11.302Z,988
2016-05-21T09:34:11.259Z,1068
2016-05-21T09:35:11.248Z,1076
2016-05-21T09:36:11.532Z,1064
2016-05-21T09:37:11.255Z,1028
2016-05-21T09:38:11.336Z,1040
2016-05-21T09:39:11.215Z,1016
2016-05-21T09:40:11.326Z,1000
2016-05-21T09:41:11.501Z,1000
2016-05-21T09:42:11.240Z,1112
2016-05-21T09:43:11.118Z,1124
2016-05-21T09:44:14.245Z,1104
2016-05-21T09:45:11.153Z,1200
2016-05-21T09:46:11.047Z,1208
2016-05-21T09:47:10.925Z,1088
2016-05-21T09:48:11.068Z,988
2016-05-21T09:49:10.946Z,1076
2016-05-21T09:50:10.916Z,1136
2016-05-21T09:51:11.123Z,1004
2016-05-21T09:52:10.906Z,916
2016-05-21T09:53:11.003Z,1064
2016-05-21T09:54:10.911Z,1076
2016-05-21T09:55:11.102Z,1036
2016-05-21T09:56:11.089Z,1252
2016-05-21T09:57:10.638Z,1128
2016-05-21T09:58:10.766Z,1188
2016-05-21T09:59:10.769Z,1212
2016-05-21T10:00:11.288Z,1156
2016-05-21T10:01:10.805Z,1012
2016-05-21T10:02:10.996Z,1172
2016-05-21T10:03:10.655Z,1248
2016-05-21T10:04:11.096Z,1176
2016-05-21T10:05:10.566Z,1208
2016-05-21T10:06:10.976Z,1304
2016-05-21T10:07:10.416Z,1616
2016-05-21T10:08:10.918Z,1520
2016-05-21T10:09:11.187Z,1460
2016-05-21T10:10:10.627Z,1500
2016-05-21T10:11:11.270Z,1588
2016-05-21T10:12:10.992Z,1632
2016-05-21T10:13:10.682Z,1704
2016-05-21T10:14:10.637Z,1492
2016-05-21T10:15:10.375Z,1600
2016-05-21T10:16:10.689Z,1380
2016-05-21T10:17:10.990Z,1512
2016-05-21T10:18:10.617Z,1652
2016-05-21T10:19:14.244Z,1388
2016-05-21T10:20:11.216Z,1392
2016-05-21T10:21:11.157Z,1280
2016-05-21T10:22:10.690Z,1332
2016-05-21T10:23:11.131Z,1296
2016-05-21T10:24:10.743Z,1280
2016-05-21T10:25:10.339Z,1196
2016-05-21T10:26:10.497Z,1260
2016-05-21T10:27:10.907Z,1464
2016-05-21T10:28:10.347Z,1536
2016-05-21T10:29:10.194Z,1556
2016-05-21T10:30:10.258Z,1332
2016-05-21T10:31:10.121Z,1300
2016-05-21T10:32:10.483Z,1448
2016-05-21T10:33:10.158Z,1588
2016-05-21T10:34:09.972Z,1604
2016-05-21T10:35:09.975Z,1712
2016-05-21T10:36:10.338Z,1864
2016-05-21T10:37:10.060Z,1856
2016-05-21T10:38:10.046Z,1704
2016-05-21T10:39:10.018Z,1756
2016-05-21T10:40:10.286Z,1956
2016-05-21T10:41:10.007Z,1744
2016-05-21T10:42:10.197Z,1668
2016-05-21T10:43:09.934Z,2000
2016-05-21T10:44:10.296Z,1976
2016-05-21T10:45:09.940Z,1752
2016-05-21T10:46:09.895Z,1236
2016-05-21T10:47:09.898Z,1348
2016-05-21T10:48:09.979Z,1272
2016-05-21T10:49:09.842Z,1328
2016-05-21T10:50:09.906Z,1420
2016-05-21T10:51:09.909Z,1580
2016-05-21T10:52:09.803Z,1712
2016-05-21T10:53:09.821Z,1736
2016-05-21T10:54:09.886Z,1652
2016-05-21T10:55:09.764Z,1852
2016-05-21T10:56:09.829Z,1668
2016-05-21T10:57:09.989Z,1284
2016-05-21T10:58:09.568Z,1160
2016-05-21T10:59:09.665Z,1304
2016-05-21T11:00:09.667Z,1608
2016-05-21T11:01:09.639Z,1460
2016-05-21T11:02:10.204Z,1460
2016-05-21T11:03:09.270Z,1556
2016-05-21T11:04:09.522Z,1484
2016-05-21T11:05:09.477Z,1256
2016-05-21T11:06:09.465Z,1432
2016-05-21T11:07:09.593Z,1576
2016-05-21T11:08:09.564Z,1612
2016-05-21T11:09:09.598Z,1296
2016-05-21T11:10:09.476Z,1096
2016-05-21T11:11:09.635Z,1164
2016-05-21T11:12:10.013Z,1216
2016-05-21T11:13:09.437Z,1404
2016-05-21T11:14:09.705Z,1392
2016-05-21T11:15:09.302Z,1632
2016-05-21T11:16:09.210Z,1880
2016-05-21T11:17:12.385Z,1460
2016-05-21T11:18:09.513Z,1348
2016-05-21T11:19:09.312Z,1456
2016-05-21T11:23:33.979Z,1924
2016-05-21T11:23:48.857Z,1772
2016-05-21T11:24:48.578Z,1496
2016-05-21T11:25:48.347Z,1428
2016-05-21T11:26:48.411Z,1544
2016-05-21T11:31:08.875Z,1796
2016-05-21T11:32:23.957Z,1788
2016-05-21T11:33:24.319Z,1584
2016-05-21T11:34:23.541Z,1552
2016-05-21T11:35:23.386Z,1524
2016-05-21T11:36:24.327Z,1608
2016-05-21T11:37:23.924Z,1928
2016-05-21T11:38:23.677Z,2348
2016-05-21T11:39:23.147Z,2128
2016-05-21T11:40:22.916Z,2384
2016-05-21T11:41:23.840Z,2284
2016-05-21T11:42:24.655Z,2196
2016-05-21T11:43:23.032Z,2232
2016-05-21T11:44:22.990Z,2372
2016-05-21T11:45:22.742Z,2676
2016-05-21T11:46:22.995Z,2796
2016-05-21T11:47:22.841Z,2824
2016-05-21T11:48:26.329Z,2824
2016-05-21T11:49:22.924Z,3180
2016-05-21T11:50:23.068Z,3316
2016-05-21T11:51:22.523Z,3696
2016-05-21T11:52:22.714Z,3900
2016-05-21T11:53:22.670Z,4288
2016-05-21T11:54:23.391Z,5048
2016-05-21T11:55:22.784Z,7316
2016-05-21T11:56:22.772Z,7476
2016-05-21T11:57:22.571Z,12044
2016-05-21T11:58:22.573Z,12880
2016-05-21T11:59:23.045Z,7316
2016-05-21T12:00:24.469Z,2984
2016-05-21T12:01:22.722Z,5040
2016-05-21T12:02:22.787Z,5092
2016-05-21T12:03:22.712Z,5564
2016-05-21T12:04:22.653Z,6116
2016-05-21T12:05:22.280Z,6120
2016-05-21T12:06:23.266Z,5308
2016-05-21T12:07:22.551Z,3792
2016-05-21T12:08:36.335Z,3804
2016-05-21T12:09:22.228Z,2432
2016-05-21T12:10:22.388Z,2112
2016-05-21T12:11:22.358Z,1876
2016-05-21T12:12:22.596Z,1968
2016-05-21T12:13:22.520Z,1816
2016-05-21T12:14:22.132Z,1684
2016-05-21T12:15:22.416Z,1480
2016-05-21T12:16:22.404Z,1724
2016-05-21T12:17:22.437Z,1652
2016-05-21T12:18:22.940Z,1504
2016-05-21T12:19:22.334Z,1776
2016-05-21T12:20:22.351Z,2032
2016-05-21T12:21:22.354Z,1512
2016-05-21T12:22:22.279Z,1332
2016-05-21T12:23:22.344Z,1464
2016-05-21T12:24:22.143Z,1284
2016-05-21T12:25:22.006Z,1440
2016-05-21T12:26:22.289Z,1384
2016-05-21T12:27:22.230Z,1512
2016-05-21T12:28:22.029Z,2060
2016-05-21T12:29:22.219Z,2220
2016-05-21T12:30:22.175Z,2916
2016-05-21T12:31:21.881Z,1920
2016-05-21T12:32:22.165Z,3268
2016-05-21T12:33:22.184Z,3292
2016-05-21T12:34:21.952Z,3000
2016-05-21T12:35:22.173Z,2760
2016-05-21T12:36:22.425Z,1992
2016-05-21T12:37:22.053Z,1756
2016-05-21T12:38:22.024Z,2028
2016-05-21T12:39:21.919Z,2832
2016-05-21T12:40:22.061Z,3072
2016-05-21T12:41:22.188Z,3196
2016-05-21T12:42:25.208Z,2792
2016-05-21T12:43:21.976Z,2796
2016-05-21T12:44:21.901Z,1832
2016-05-21T12:45:21.982Z,2184
2016-05-21T12:46:21.906Z,2192
2016-05-21T12:47:21.830Z,1760
2016-05-21T12:48:21.832Z,2132
2016-05-21T12:49:21.679Z,3056
2016-05-21T12:50:21.557Z,3220
2016-05-21T12:51:22.279Z,2932
2016-05-21T12:52:21.735Z,2988
2016-05-21T12:53:21.737Z,2836
2016-05-21T12:54:22.318Z,2904
2016-05-21T12:55:35.820Z,3284
2016-05-21T12:56:21.839Z,3380
2016-05-21T12:57:22.342Z,3632
2016-05-21T12:58:21.719Z,2796
2016-05-21T12:59:21.534Z,2988
2016-05-21T13:00:22.256Z,2900
2016-05-21T13:01:22.197Z,2424
2016-05-21T13:02:21.730Z,3404
2016-05-21T13:03:21.420Z,3532
2016-05-21T13:04:21.626Z,3312
2016-05-21T13:05:21.550Z,3892
2016-05-21T13:06:21.819Z,4072
2016-05-21T13:07:21.415Z,3752
2016-05-21T13:08:21.324Z,4104
2016-05-21T13:09:21.499Z,5924
2016-05-21T13:10:21.486Z,5088
2016-05-21T13:11:21.536Z,2748
2016-05-21T13:12:22.210Z,37728
2016-05-21T13:13:21.416Z,53536
2016-05-21T13:15:18.172Z,37184
2016-05-21T13:15:32.906Z,31776
2016-05-21T13:16:33.517Z,48416
2016-05-21T13:17:33.848Z,19264
2016-05-21T13:18:33.398Z,47648
2016-05-21T13:19:33.104Z,50432
2016-05-21T13:20:32.623Z,3332
2016-05-21T13:21:32.640Z,19232
2016-05-21T13:22:35.737Z,2136
2016-05-21T13:23:33.084Z,2076
2016-05-21T13:24:32.695Z,2632
2016-05-21T13:25:33.807Z,62720
2016-05-21T13:26:32.857Z,2288
2016-05-21T13:27:32.437Z,2372
2016-05-21T13:28:32.581Z,35872
2016-05-21T13:29:33.506Z,2004
2016-05-21T13:30:33.275Z,2192
2016-05-21T13:31:32.387Z,4124
2016-05-21T13:32:32.405Z,18976
2016-05-21T13:33:32.657Z,15552
2016-05-21T13:34:33.191Z,9480
2016-05-21T13:35:33.725Z,12840
2016-05-21T13:36:33.916Z,26240
2016-05-21T13:37:33.309Z,8996
2016-05-21T13:38:33.061Z,13620
2016-05-21T13:39:32.517Z,23776
2016-05-21T13:40:32.582Z,13408
2016-05-21T13:41:33.086Z,23296
2016-05-21T13:42:33.307Z,7724
2016-05-21T13:43:32.949Z,10444
2016-05-21T13:44:32.733Z,9992
2016-05-21T13:45:33.174Z,7944
2016-05-21T13:46:32.771Z,10860
2016-05-21T13:47:33.054Z,12556
2016-05-21T13:48:32.854Z,19296
2016-05-21T13:49:32.716Z,23424
2016-05-21T13:50:33.078Z,26720
2016-05-21T13:51:32.096Z,16192
2016-05-21T13:52:33.037Z,13208
2016-05-21T13:53:32.523Z,15456
2016-05-21T13:54:32.355Z,9068
2016-05-21T13:55:32.107Z,8024